sensor_id;sensor_type;location;lat;lon;timestamp;pressure;altitude;pressure_sealevel;temperature;humidity
51526;BME280;37611;51.794;21.590;2023-04-09T00:02:18;100674.11;;;7.12;100.00
51526;BME280;37611;51.794;21.590;2023-04-09T00:06:19;100671.90;;;7.15;100.00
51526;BME280;37611;51.794;21.590;2023-04-09T00:10:21;100669.61;;;7.17;100.00
51526;BME280;37611;51.794;21.590;2023-04-09T00:14:23;100665.40;;;7.18;100.00
51526;BME280;37611;51.794;21.590;2023-04-09T00:18:25;100663.08;;;7.18;100.00
51526;BME280;37611;51.794;21.590;2023-04-09T00:22:27;100665.15;;;7.23;100.00
51526;BME280;37611;51.794;21.590;2023-04-09T00:26:29;100667.55;;;7.31;100.00
51526;BME280;37611;51.794;21.590;2023-04-09T00:30:31;100673.95;;;7.31;100.00
51526;BME280;37611;51.794;21.590;2023-04-09T00:34:33;100669.64;;;7.33;100.00
51526;BME280;37611;51.794;21.590;2023-04-09T00:38:35;100674.47;;;7.39;100.00
51526;BME280;37611;51.794;21.590;2023-04-09T00:42:36;100668.71;;;7.41;100.00
51526;BME280;37611;51.794;21.590;2023-04-09T00:46:38;100672.15;;;7.42;100.00
51526;BME280;37611;51.794;21.590;2023-04-09T00:50:41;100672.00;;;7.43;100.00
51526;BME280;37611;51.794;21.590;2023-04-09T00:54:43;100667.55;;;7.38;100.00
51526;BME280;37611;51.794;21.590;2023-04-09T00:58:44;100669.27;;;7.28;100.00
51526;BME280;37611;51.794;21.590;2023-04-09T01:02:47;100672.17;;;7.20;100.00
51526;BME280;37611;51.794;21.590;2023-04-09T01:07:03;100669.92;;;7.15;100.00
51526;BME280;37611;51.794;21.590;2023-04-09T01:15:49;100671.54;;;7.17;100.00
51526;BME280;37611;51.794;21.590;2023-04-09T01:20:00;100675.01;;;7.22;100.00
51526;BME280;37611;51.794;21.590;2023-04-09T01:24:20;100678.74;;;7.25;100.00
51526;BME280;37611;51.794;21.590;2023-04-09T01:28:56;100678.81;;;7.31;100.00
51526;BME280;37611;51.794;21.590;2023-04-09T01:32:59;100684.81;;;7.37;100.00
51526;BME280;37611;51.794;21.590;2023-04-09T01:37:02;100683.65;;;7.42;100.00
51526;BME280;37611;51.794;21.590;2023-04-09T01:41:05;100685.38;;;7.44;100.00
51526;BME280;37611;51.794;21.590;2023-04-09T01:45:09;100686.23;;;7.44;100.00
51526;BME280;37611;51.794;21.590;2023-04-09T01:49:12;100684.59;;;7.38;100.00
51526;BME280;37611;51.794;21.590;2023-04-09T01:53:15;100684.86;;;7.30;100.00
51526;BME280;37611;51.794;21.590;2023-04-09T01:57:17;100680.36;;;7.32;100.00
51526;BME280;37611;51.794;21.590;2023-04-09T02:01:29;100674.86;;;7.35;100.00
51526;BME280;37611;51.794;21.590;2023-04-09T02:05:37;100670.09;;;7.36;100.00
51526;BME280;37611;51.794;21.590;2023-04-09T02:09:44;100666.67;;;7.33;100.00
51526;BME280;37611;51.794;21.590;2023-04-09T02:13:48;100665.53;;;7.32;100.00
51526;BME280;37611;51.794;21.590;2023-04-09T02:17:50;100667.02;;;7.33;100.00
51526;BME280;37611;51.794;21.590;2023-04-09T02:21:52;100669.09;;;7.38;100.00
51526;BME280;37611;51.794;21.590;2023-04-09T02:25:54;100670.38;;;7.40;100.00
51526;BME280;37611;51.794;21.590;2023-04-09T02:29:56;100670.57;;;7.40;100.00
51526;BME280;37611;51.794;21.590;2023-04-09T02:33:58;100669.23;;;7.39;100.00
51526;BME280;37611;51.794;21.590;2023-04-09T02:38:00;100662.77;;;7.34;100.00
51526;BME280;37611;51.794;21.590;2023-04-09T02:42:01;100663.04;;;7.30;100.00
51526;BME280;37611;51.794;21.590;2023-04-09T02:46:03;100659.59;;;7.25;100.00
51526;BME280;37611;51.794;21.590;2023-04-09T02:50:06;100658.08;;;7.24;100.00
51526;BME280;37611;51.794;21.590;2023-04-09T02:54:08;100654.54;;;7.23;100.00
51526;BME280;37611;51.794;21.590;2023-04-09T02:58:09;100654.42;;;7.27;100.00
51526;BME280;37611;51.794;21.590;2023-04-09T03:02:11;100657.16;;;7.34;100.00
51526;BME280;37611;51.794;21.590;2023-04-09T03:06:13;100658.69;;;7.38;100.00
51526;BME280;37611;51.794;21.590;2023-04-09T03:10:15;100658.70;;;7.39;100.00
51526;BME280;37611;51.794;21.590;2023-04-09T03:14:17;100661.94;;;7.41;100.00
51526;BME280;37611;51.794;21.590;2023-04-09T03:18:19;100660.55;;;7.38;100.00
51526;BME280;37611;51.794;21.590;2023-04-09T03:22:21;100659.41;;;7.32;100.00
51526;BME280;37611;51.794;21.590;2023-04-09T03:26:23;100654.20;;;7.34;100.00
51526;BME280;37611;51.794;21.590;2023-04-09T03:30:25;100651.48;;;7.36;100.00
51526;BME280;37611;51.794;21.590;2023-04-09T03:34:27;100652.47;;;7.36;100.00
51526;BME280;37611;51.794;21.590;2023-04-09T03:38:28;100655.23;;;7.39;100.00
51526;BME280;37611;51.794;21.590;2023-04-09T03:42:30;100656.55;;;7.38;100.00
51526;BME280;37611;51.794;21.590;2023-04-09T03:46:32;100654.05;;;7.34;100.00
51526;BME280;37611;51.794;21.590;2023-04-09T03:50:40;100657.52;;;7.34;100.00
51526;BME280;37611;51.794;21.590;2023-04-09T03:54:42;100658.32;;;7.33;100.00
51526;BME280;37611;51.794;21.590;2023-04-09T03:58:44;100656.34;;;7.31;100.00
51526;BME280;37611;51.794;21.590;2023-04-09T04:02:46;100652.48;;;7.34;100.00
51526;BME280;37611;51.794;21.590;2023-04-09T04:06:47;100641.23;;;7.38;100.00
51526;BME280;37611;51.794;21.590;2023-04-09T04:10:49;100647.86;;;7.40;100.00
51526;BME280;37611;51.794;21.590;2023-04-09T04:14:51;100651.55;;;7.40;100.00
51526;BME280;37611;51.794;21.590;2023-04-09T04:18:53;100658.93;;;7.34;100.00
51526;BME280;37611;51.794;21.590;2023-04-09T04:22:55;100663.03;;;7.28;100.00
51526;BME280;37611;51.794;21.590;2023-04-09T04:26:57;100663.47;;;7.25;100.00
51526;BME280;37611;51.794;21.590;2023-04-09T04:30:58;100663.34;;;7.26;100.00
51526;BME280;37611;51.794;21.590;2023-04-09T04:35:00;100663.90;;;7.31;100.00
51526;BME280;37611;51.794;21.590;2023-04-09T04:39:02;100660.51;;;7.36;100.00
51526;BME280;37611;51.794;21.590;2023-04-09T04:43:04;100664.50;;;7.41;100.00
51526;BME280;37611;51.794;21.590;2023-04-09T04:47:06;100669.02;;;7.46;100.00
51526;BME280;37611;51.794;21.590;2023-04-09T04:51:08;100672.39;;;7.48;100.00
51526;BME280;37611;51.794;21.590;2023-04-09T04:55:09;100673.61;;;7.41;100.00
51526;BME280;37611;51.794;21.590;2023-04-09T04:59:11;100675.02;;;7.33;100.00
51526;BME280;37611;51.794;21.590;2023-04-09T05:03:13;100682.95;;;7.25;100.00
51526;BME280;37611;51.794;21.590;2023-04-09T05:07:15;100683.91;;;7.22;100.00
51526;BME280;37611;51.794;21.590;2023-04-09T05:11:17;100683.42;;;7.24;100.00
51526;BME280;37611;51.794;21.590;2023-04-09T05:15:19;100682.77;;;7.29;100.00
51526;BME280;37611;51.794;21.590;2023-04-09T05:19:21;100684.57;;;7.34;100.00
51526;BME280;37611;51.794;21.590;2023-04-09T05:23:23;100685.91;;;7.44;100.00
51526;BME280;37611;51.794;21.590;2023-04-09T05:27:25;100684.79;;;7.54;100.00
51526;BME280;37611;51.794;21.590;2023-04-09T05:31:28;100690.01;;;7.68;100.00
51526;BME280;37611;51.794;21.590;2023-04-09T05:35:29;100689.20;;;7.86;100.00
51526;BME280;37611;51.794;21.590;2023-04-09T05:39:31;100692.00;;;8.06;100.00
51526;BME280;37611;51.794;21.590;2023-04-09T05:43:33;100701.02;;;8.22;100.00
51526;BME280;37611;51.794;21.590;2023-04-09T05:47:35;100699.88;;;8.39;100.00
51526;BME280;37611;51.794;21.590;2023-04-09T05:51:37;100701.50;;;8.56;100.00
51526;BME280;37611;51.794;21.590;2023-04-09T05:55:39;100709.52;;;8.69;100.00
51526;BME280;37611;51.794;21.590;2023-04-09T05:59:41;100714.75;;;8.78;100.00
51526;BME280;37611;51.794;21.590;2023-04-09T06:03:43;100715.25;;;8.85;100.00
51526;BME280;37611;51.794;21.590;2023-04-09T06:07:44;100715.88;;;8.93;100.00
51526;BME280;37611;51.794;21.590;2023-04-09T06:11:46;100716.95;;;9.01;100.00
51526;BME280;37611;51.794;21.590;2023-04-09T06:15:48;100718.98;;;9.10;100.00
51526;BME280;37611;51.794;21.590;2023-04-09T06:19:50;100717.48;;;9.28;100.00
51526;BME280;37611;51.794;21.590;2023-04-09T06:23:52;100723.73;;;9.42;100.00
51526;BME280;37611;51.794;21.590;2023-04-09T06:27:54;100729.01;;;9.41;100.00
51526;BME280;37611;51.794;21.590;2023-04-09T06:31:55;100729.98;;;9.38;100.00
51526;BME280;37611;51.794;21.590;2023-04-09T06:35:57;100729.80;;;9.40;100.00
51526;BME280;37611;51.794;21.590;2023-04-09T06:39:59;100727.83;;;9.47;100.00
51526;BME280;37611;51.794;21.590;2023-04-09T06:44:01;100720.44;;;9.60;100.00
51526;BME280;37611;51.794;21.590;2023-04-09T06:48:03;100724.41;;;9.82;100.00
51526;BME280;37611;51.794;21.590;2023-04-09T06:52:05;100725.02;;;10.08;100.00
51526;BME280;37611;51.794;21.590;2023-04-09T06:56:08;100724.48;;;10.32;100.00
51526;BME280;37611;51.794;21.590;2023-04-09T07:00:11;100721.61;;;10.75;100.00
51526;BME280;37611;51.794;21.590;2023-04-09T07:04:13;100728.68;;;11.66;100.00
51526;BME280;37611;51.794;21.590;2023-04-09T07:08:14;100738.97;;;12.55;100.00
51526;BME280;37611;51.794;21.590;2023-04-09T07:12:30;100739.67;;;13.16;100.00
51526;BME280;37611;51.794;21.590;2023-04-09T07:16:32;100739.83;;;13.68;98.93
51526;BME280;37611;51.794;21.590;2023-04-09T07:20:33;100740.13;;;13.98;96.99
51526;BME280;37611;51.794;21.590;2023-04-09T07:24:35;100745.39;;;13.84;94.93
51526;BME280;37611;51.794;21.590;2023-04-09T07:28:37;100745.40;;;13.74;96.00
51526;BME280;37611;51.794;21.590;2023-04-09T07:32:39;100746.82;;;13.49;93.73
51526;BME280;37611;51.794;21.590;2023-04-09T07:36:40;100745.18;;;13.29;94.48
51526;BME280;37611;51.794;21.590;2023-04-09T07:40:44;100739.77;;;13.39;94.55
51526;BME280;37611;51.794;21.590;2023-04-09T07:44:46;100739.14;;;13.72;94.39
51526;BME280;37611;51.794;21.590;2023-04-09T07:48:48;100738.84;;;14.09;92.87
51526;BME280;37611;51.794;21.590;2023-04-09T07:52:50;100738.02;;;14.55;92.40
51526;BME280;37611;51.794;21.590;2023-04-09T07:56:52;100738.95;;;14.65;91.14
51526;BME280;37611;51.794;21.590;2023-04-09T08:00:53;100738.75;;;14.88;90.74
51526;BME280;37611;51.794;21.590;2023-04-09T08:04:55;100737.12;;;14.70;89.69
51526;BME280;37611;51.794;21.590;2023-04-09T08:08:58;100734.77;;;14.52;89.09
51526;BME280;37611;51.794;21.590;2023-04-09T08:12:59;100738.67;;;14.47;88.60
51526;BME280;37611;51.794;21.590;2023-04-09T08:17:01;100741.73;;;14.45;87.83
51526;BME280;37611;51.794;21.590;2023-04-09T08:21:04;100751.02;;;14.28;87.54
51526;BME280;37611;51.794;21.590;2023-04-09T08:25:06;100748.98;;;14.22;87.07
51526;BME280;37611;51.794;21.590;2023-04-09T08:29:10;100745.34;;;14.96;87.39
51526;BME280;37611;51.794;21.590;2023-04-09T08:33:13;100745.70;;;15.53;86.41
51526;BME280;37611;51.794;21.590;2023-04-09T08:37:15;100745.52;;;15.95;85.33
51526;BME280;37611;51.794;21.590;2023-04-09T08:41:19;100744.17;;;16.26;83.04
51526;BME280;37611;51.794;21.590;2023-04-09T08:45:21;100746.04;;;16.52;81.56
51526;BME280;37611;51.794;21.590;2023-04-09T08:49:23;100744.52;;;16.49;78.61
51526;BME280;37611;51.794;21.590;2023-04-09T08:53:24;100745.65;;;16.39;78.30
51526;BME280;37611;51.794;21.590;2023-04-09T08:57:27;100749.64;;;16.29;77.84
51526;BME280;37611;51.794;21.590;2023-04-09T09:01:30;100747.14;;;16.32;78.63
51526;BME280;37611;51.794;21.590;2023-04-09T09:05:37;100744.05;;;16.51;78.48
51526;BME280;37611;51.794;21.590;2023-04-09T09:09:50;100748.42;;;16.67;77.16
51526;BME280;37611;51.794;21.590;2023-04-09T09:14:10;100748.21;;;16.61;75.03
51526;BME280;37611;51.794;21.590;2023-04-09T09:18:12;100752.61;;;16.56;75.91
51526;BME280;37611;51.794;21.590;2023-04-09T09:22:14;100749.06;;;16.40;75.11
51526;BME280;37611;51.794;21.590;2023-04-09T09:26:18;100750.73;;;16.14;75.03
51526;BME280;37611;51.794;21.590;2023-04-09T09:30:26;100748.89;;;16.02;75.70
51526;BME280;37611;51.794;21.590;2023-04-09T09:34:28;100750.68;;;15.94;75.18
51526;BME280;37611;51.794;21.590;2023-04-09T09:38:30;100750.48;;;15.80;75.40
51526;BME280;37611;51.794;21.590;2023-04-09T09:42:32;100755.52;;;15.64;74.56
51526;BME280;37611;51.794;21.590;2023-04-09T09:46:39;100756.14;;;15.24;75.11
51526;BME280;37611;51.794;21.590;2023-04-09T09:50:42;100755.95;;;15.17;75.68
51526;BME280;37611;51.794;21.590;2023-04-09T09:54:47;100753.20;;;15.02;76.12
51526;BME280;37611;51.794;21.590;2023-04-09T10:03:21;100749.50;;;14.77;75.54
51526;BME280;37611;51.794;21.590;2023-04-09T10:07:23;100745.47;;;14.60;76.77
51526;BME280;37611;51.794;21.590;2023-04-09T10:11:26;100742.38;;;14.74;77.40
51526;BME280;37611;51.794;21.590;2023-04-09T10:15:28;100740.27;;;14.99;75.46
51526;BME280;37611;51.794;21.590;2023-04-09T10:19:36;100740.11;;;15.15;75.29
51526;BME280;37611;51.794;21.590;2023-04-09T10:23:41;100739.27;;;15.41;75.50
51526;BME280;37611;51.794;21.590;2023-04-09T10:27:43;100736.33;;;15.47;75.60
51526;BME280;37611;51.794;21.590;2023-04-09T10:31:53;100737.09;;;15.42;74.57
51526;BME280;37611;51.794;21.590;2023-04-09T10:36:01;100731.95;;;15.39;73.51
51526;BME280;37611;51.794;21.590;2023-04-09T10:40:05;100734.34;;;15.41;73.31
51526;BME280;37611;51.794;21.590;2023-04-09T10:44:22;100728.86;;;15.28;72.70
51526;BME280;37611;51.794;21.590;2023-04-09T10:48:24;100731.80;;;15.10;72.08
51526;BME280;37611;51.794;21.590;2023-04-09T10:52:30;100726.61;;;15.05;72.02
51526;BME280;37611;51.794;21.590;2023-04-09T10:56:32;100725.56;;;15.10;72.30
51526;BME280;37611;51.794;21.590;2023-04-09T11:00:44;100726.31;;;15.12;70.96
51526;BME280;37611;51.794;21.590;2023-04-09T11:05:01;100721.10;;;15.21;71.59
51526;BME280;37611;51.794;21.590;2023-04-09T11:09:06;100720.35;;;15.40;71.05
51526;BME280;37611;51.794;21.590;2023-04-09T11:13:15;100722.20;;;15.52;71.17
51526;BME280;37611;51.794;21.590;2023-04-09T11:17:17;100721.06;;;15.68;70.44
51526;BME280;37611;51.794;21.590;2023-04-09T11:21:20;100722.29;;;15.65;69.03
51526;BME280;37611;51.794;21.590;2023-04-09T11:25:25;100719.26;;;15.61;69.24
51526;BME280;37611;51.794;21.590;2023-04-09T11:29:27;100720.20;;;15.71;69.15
51526;BME280;37611;51.794;21.590;2023-04-09T11:33:32;100719.98;;;15.65;68.52
51526;BME280;37611;51.794;21.590;2023-04-09T11:37:35;100721.23;;;15.51;68.34
51526;BME280;37611;51.794;21.590;2023-04-09T11:41:37;100722.17;;;15.43;68.40
51526;BME280;37611;51.794;21.590;2023-04-09T11:45:39;100719.41;;;15.19;68.29
51526;BME280;37611;51.794;21.590;2023-04-09T11:49:41;100720.34;;;15.10;68.60
51526;BME280;37611;51.794;21.590;2023-04-09T11:53:43;100718.27;;;15.05;68.25
51526;BME280;37611;51.794;21.590;2023-04-09T11:57:45;100718.52;;;15.00;69.12
51526;BME280;37611;51.794;21.590;2023-04-09T12:01:48;100716.80;;;15.08;68.87
51526;BME280;37611;51.794;21.590;2023-04-09T12:05:51;100716.08;;;14.98;67.62
51526;BME280;37611;51.794;21.590;2023-04-09T12:09:53;100716.67;;;14.93;68.47
51526;BME280;37611;51.794;21.590;2023-04-09T12:14:01;100713.73;;;14.98;68.80
51526;BME280;37611;51.794;21.590;2023-04-09T12:18:07;100713.04;;;14.95;68.68
51526;BME280;37611;51.794;21.590;2023-04-09T12:22:09;100712.40;;;14.89;68.25
51526;BME280;37611;51.794;21.590;2023-04-09T12:26:11;100713.84;;;14.76;68.26
51526;BME280;37611;51.794;21.590;2023-04-09T12:30:13;100707.05;;;14.63;67.96
51526;BME280;37611;51.794;21.590;2023-04-09T12:34:15;100712.84;;;14.49;68.49
51526;BME280;37611;51.794;21.590;2023-04-09T12:38:16;100714.85;;;14.43;68.99
51526;BME280;37611;51.794;21.590;2023-04-09T12:42:18;100710.45;;;14.40;69.55
51526;BME280;37611;51.794;21.590;2023-04-09T12:46:20;100707.01;;;14.24;70.13
51526;BME280;37611;51.794;21.590;2023-04-09T12:50:21;100708.61;;;14.17;71.72
51526;BME280;37611;51.794;21.590;2023-04-09T12:54:23;100712.08;;;14.18;72.32
51526;BME280;37611;51.794;21.590;2023-04-09T12:58:25;100710.89;;;14.21;72.56
51526;BME280;37611;51.794;21.590;2023-04-09T13:02:26;100701.65;;;14.20;72.20
51526;BME280;37611;51.794;21.590;2023-04-09T13:06:28;100703.21;;;14.16;72.43
51526;BME280;37611;51.794;21.590;2023-04-09T13:10:30;100701.55;;;14.14;73.38
51526;BME280;37611;51.794;21.590;2023-04-09T13:14:32;100695.84;;;14.21;74.35
51526;BME280;37611;51.794;21.590;2023-04-09T13:18:33;100698.77;;;14.36;74.48
51526;BME280;37611;51.794;21.590;2023-04-09T13:22:35;100694.98;;;14.40;74.01
51526;BME280;37611;51.794;21.590;2023-04-09T13:26:37;100689.96;;;14.40;73.71
51526;BME280;37611;51.794;21.590;2023-04-09T13:30:38;100687.05;;;14.38;73.62
51526;BME280;37611;51.794;21.590;2023-04-09T13:34:40;100683.43;;;14.44;72.95
51526;BME280;37611;51.794;21.590;2023-04-09T13:38:42;100678.65;;;14.36;72.91
51526;BME280;37611;51.794;21.590;2023-04-09T13:42:43;100678.13;;;14.28;73.99
51526;BME280;37611;51.794;21.590;2023-04-09T13:46:45;100680.58;;;14.31;73.85
51526;BME280;37611;51.794;21.590;2023-04-09T13:50:47;100680.98;;;14.37;73.99
51526;BME280;37611;51.794;21.590;2023-04-09T13:54:48;100676.98;;;14.47;74.43
51526;BME280;37611;51.794;21.590;2023-04-09T13:58:50;100677.54;;;14.65;74.76
51526;BME280;37611;51.794;21.590;2023-04-09T14:02:52;100675.95;;;14.80;74.46
51526;BME280;37611;51.794;21.590;2023-04-09T14:06:54;100677.39;;;14.87;73.56
51526;BME280;37611;51.794;21.590;2023-04-09T14:10:56;100671.31;;;14.96;74.21
51526;BME280;37611;51.794;21.590;2023-04-09T14:14:57;100667.54;;;15.01;74.17
51526;BME280;37611;51.794;21.590;2023-04-09T14:18:59;100661.36;;;15.00;72.64
51526;BME280;37611;51.794;21.590;2023-04-09T14:23:01;100659.11;;;14.88;72.36
51526;BME280;37611;51.794;21.590;2023-04-09T14:27:03;100664.44;;;14.77;72.61
51526;BME280;37611;51.794;21.590;2023-04-09T14:31:05;100663.61;;;14.72;72.91
51526;BME280;37611;51.794;21.590;2023-04-09T14:35:07;100662.23;;;14.70;72.91
51526;BME280;37611;51.794;21.590;2023-04-09T14:39:09;100661.45;;;14.69;72.80
51526;BME280;37611;51.794;21.590;2023-04-09T14:43:11;100662.23;;;14.65;72.28
51526;BME280;37611;51.794;21.590;2023-04-09T14:47:13;100657.08;;;14.45;72.01
51526;BME280;37611;51.794;21.590;2023-04-09T14:51:15;100653.95;;;14.30;72.57
51526;BME280;37611;51.794;21.590;2023-04-09T14:55:17;100649.64;;;14.25;73.03
51526;BME280;37611;51.794;21.590;2023-04-09T14:59:18;100646.66;;;14.16;73.25
51526;BME280;37611;51.794;21.590;2023-04-09T15:03:20;100648.60;;;14.17;73.69
51526;BME280;37611;51.794;21.590;2023-04-09T15:07:22;100649.23;;;14.19;73.60
51526;BME280;37611;51.794;21.590;2023-04-09T15:11:24;100650.55;;;14.21;73.34
51526;BME280;37611;51.794;21.590;2023-04-09T15:15:25;100656.23;;;14.14;73.26
51526;BME280;37611;51.794;21.590;2023-04-09T15:19:27;100653.13;;;14.12;73.75
51526;BME280;37611;51.794;21.590;2023-04-09T15:23:29;100653.59;;;14.13;74.23
51526;BME280;37611;51.794;21.590;2023-04-09T15:27:31;100652.52;;;14.11;74.23
51526;BME280;37611;51.794;21.590;2023-04-09T15:31:33;100656.15;;;14.10;74.15
51526;BME280;37611;51.794;21.590;2023-04-09T15:35:35;100657.77;;;14.10;74.75
51526;BME280;37611;51.794;21.590;2023-04-09T15:39:36;100657.38;;;14.09;74.37
51526;BME280;37611;51.794;21.590;2023-04-09T15:43:38;100658.34;;;14.03;74.51
51526;BME280;37611;51.794;21.590;2023-04-09T15:47:40;100655.84;;;13.97;75.07
51526;BME280;37611;51.794;21.590;2023-04-09T15:51:42;100655.42;;;13.95;75.59
51526;BME280;37611;51.794;21.590;2023-04-09T15:55:43;100652.66;;;13.91;75.59
51526;BME280;37611;51.794;21.590;2023-04-09T15:59:45;100658.98;;;13.86;75.49
51526;BME280;37611;51.794;21.590;2023-04-09T16:03:48;100657.39;;;13.79;76.29
51526;BME280;37611;51.794;21.590;2023-04-09T16:07:52;100654.53;;;13.74;76.43
51526;BME280;37611;51.794;21.590;2023-04-09T16:11:54;100655.93;;;13.71;76.57
51526;BME280;37611;51.794;21.590;2023-04-09T16:15:56;100654.27;;;13.70;76.68
51526;BME280;37611;51.794;21.590;2023-04-09T16:19:57;100658.46;;;13.69;77.82
51526;BME280;37611;51.794;21.590;2023-04-09T16:23:59;100655.23;;;13.64;78.96
51526;BME280;37611;51.794;21.590;2023-04-09T16:28:01;100650.92;;;13.60;79.82
51526;BME280;37611;51.794;21.590;2023-04-09T16:32:03;100651.00;;;13.57;79.94
51526;BME280;37611;51.794;21.590;2023-04-09T16:36:05;100648.41;;;13.51;80.68
51526;BME280;37611;51.794;21.590;2023-04-09T16:40:07;100648.71;;;13.47;81.23
51526;BME280;37611;51.794;21.590;2023-04-09T16:44:09;100650.65;;;13.40;81.38
51526;BME280;37611;51.794;21.590;2023-04-09T16:48:11;100654.55;;;13.33;81.88
51526;BME280;37611;51.794;21.590;2023-04-09T16:52:13;100656.39;;;13.27;82.87
51526;BME280;37611;51.794;21.590;2023-04-09T16:56:15;100653.56;;;13.21;83.37
51526;BME280;37611;51.794;21.590;2023-04-09T17:00:17;100661.77;;;13.18;83.51
51526;BME280;37611;51.794;21.590;2023-04-09T17:04:19;100667.40;;;13.14;84.35
51526;BME280;37611;51.794;21.590;2023-04-09T17:08:22;100671.03;;;13.10;85.32
51526;BME280;37611;51.794;21.590;2023-04-09T17:12:24;100674.52;;;13.05;86.02
51526;BME280;37611;51.794;21.590;2023-04-09T17:16:27;100673.84;;;12.99;87.56
51526;BME280;37611;51.794;21.590;2023-04-09T17:20:29;100675.12;;;12.95;87.81
51526;BME280;37611;51.794;21.590;2023-04-09T17:24:30;100674.98;;;12.91;87.98
51526;BME280;37611;51.794;21.590;2023-04-09T17:28:37;100681.96;;;12.86;88.13
51526;BME280;37611;51.794;21.590;2023-04-09T17:32:39;100681.76;;;12.80;88.92
51526;BME280;37611;51.794;21.590;2023-04-09T17:36:40;100684.94;;;12.70;90.32
51526;BME280;37611;51.794;21.590;2023-04-09T17:40:42;100687.53;;;12.56;91.30
51526;BME280;37611;51.794;21.590;2023-04-09T17:44:44;100692.91;;;12.39;91.29
51526;BME280;37611;51.794;21.590;2023-04-09T17:48:46;100695.98;;;12.25;91.26
51526;BME280;37611;51.794;21.590;2023-04-09T17:52:48;100700.97;;;12.18;91.51
51526;BME280;37611;51.794;21.590;2023-04-09T17:56:51;100707.26;;;12.13;91.96
51526;BME280;37611;51.794;21.590;2023-04-09T18:00:52;100711.52;;;12.09;92.82
51526;BME280;37611;51.794;21.590;2023-04-09T18:04:57;100713.27;;;12.04;93.41
51526;BME280;37611;51.794;21.590;2023-04-09T18:09:00;100713.48;;;11.97;94.06
51526;BME280;37611;51.794;21.590;2023-04-09T18:13:02;100718.30;;;11.85;93.35
51526;BME280;37611;51.794;21.590;2023-04-09T18:17:04;100725.30;;;11.74;93.82
51526;BME280;37611;51.794;21.590;2023-04-09T18:21:05;100721.34;;;11.69;94.70
51526;BME280;37611;51.794;21.590;2023-04-09T18:25:07;100723.38;;;11.62;94.42
51526;BME280;37611;51.794;21.590;2023-04-09T18:29:09;100725.77;;;11.56;94.71
51526;BME280;37611;51.794;21.590;2023-04-09T18:33:11;100727.85;;;11.42;94.48
51526;BME280;37611;51.794;21.590;2023-04-09T18:37:13;100729.87;;;11.30;94.50
51526;BME280;37611;51.794;21.590;2023-04-09T18:41:25;100733.98;;;11.19;96.57
51526;BME280;37611;51.794;21.590;2023-04-09T18:45:27;100737.18;;;11.05;96.47
51526;BME280;37611;51.794;21.590;2023-04-09T18:49:31;100742.43;;;10.94;97.21
51526;BME280;37611;51.794;21.590;2023-04-09T18:53:33;100745.65;;;10.87;98.08
51526;BME280;37611;51.794;21.590;2023-04-09T18:57:35;100747.67;;;10.82;97.99
51526;BME280;37611;51.794;21.590;2023-04-09T19:01:37;100744.64;;;10.76;98.11
51526;BME280;37611;51.794;21.590;2023-04-09T19:05:38;100748.17;;;10.66;98.96
51526;BME280;37611;51.794;21.590;2023-04-09T19:09:40;100749.02;;;10.59;98.94
51526;BME280;37611;51.794;21.590;2023-04-09T19:13:42;100748.46;;;10.49;98.37
51526;BME280;37611;51.794;21.590;2023-04-09T19:17:44;100749.35;;;10.35;99.66
51526;BME280;37611;51.794;21.590;2023-04-09T19:21:46;100746.88;;;10.24;99.86
51526;BME280;37611;51.794;21.590;2023-04-09T19:25:51;100750.26;;;10.21;99.98
51526;BME280;37611;51.794;21.590;2023-04-09T19:29:54;100748.79;;;10.20;100.00
51526;BME280;37611;51.794;21.590;2023-04-09T19:33:59;100751.16;;;10.21;100.00
51526;BME280;37611;51.794;21.590;2023-04-09T19:38:01;100747.38;;;10.20;100.00
51526;BME280;37611;51.794;21.590;2023-04-09T19:42:02;100748.67;;;10.19;100.00
51526;BME280;37611;51.794;21.590;2023-04-09T19:46:05;100747.19;;;10.16;100.00
51526;BME280;37611;51.794;21.590;2023-04-09T19:50:08;100745.70;;;10.16;100.00
51526;BME280;37611;51.794;21.590;2023-04-09T19:54:10;100746.08;;;10.15;100.00
51526;BME280;37611;51.794;21.590;2023-04-09T19:58:11;100744.98;;;10.16;100.00
51526;BME280;37611;51.794;21.590;2023-04-09T20:02:13;100748.48;;;10.18;100.00
51526;BME280;37611;51.794;21.590;2023-04-09T20:06:15;100747.02;;;10.20;100.00
51526;BME280;37611;51.794;21.590;2023-04-09T20:10:17;100745.44;;;10.20;100.00
51526;BME280;37611;51.794;21.590;2023-04-09T20:14:20;100748.20;;;10.21;100.00
51526;BME280;37611;51.794;21.590;2023-04-09T20:18:22;100754.38;;;10.22;100.00
51526;BME280;37611;51.794;21.590;2023-04-09T20:22:24;100754.70;;;10.17;100.00
51526;BME280;37611;51.794;21.590;2023-04-09T20:26:26;100751.60;;;10.10;100.00
51526;BME280;37611;51.794;21.590;2023-04-09T20:30:31;100748.06;;;10.10;100.00
51526;BME280;37611;51.794;21.590;2023-04-09T20:34:33;100743.99;;;10.11;100.00
51526;BME280;37611;51.794;21.590;2023-04-09T20:38:34;100741.62;;;10.06;100.00
51526;BME280;37611;51.794;21.590;2023-04-09T20:42:38;100744.05;;;10.04;100.00
51526;BME280;37611;51.794;21.590;2023-04-09T20:46:41;100740.50;;;10.06;100.00
51526;BME280;37611;51.794;21.590;2023-04-09T20:50:43;100743.23;;;10.05;100.00
51526;BME280;37611;51.794;21.590;2023-04-09T20:54:44;100739.60;;;9.99;100.00
51526;BME280;37611;51.794;21.590;2023-04-09T20:58:46;100737.30;;;9.91;100.00